sensor_id;sensor_type;location;lat;lon;timestamp;temperature;humidity
24730;DHT22;12832;52.392;13.066;2022-12-29T00:01:37;25.40;31.60
24730;DHT22;12832;52.392;13.066;2022-12-29T00:04:04;25.40;31.70
24730;DHT22;12832;52.392;13.066;2022-12-29T00:06:38;25.40;31.60
24730;DHT22;12832;52.392;13.066;2022-12-29T00:09:04;25.50;31.70
24730;DHT22;12832;52.392;13.066;2022-12-29T00:11:30;25.40;31.60
24730;DHT22;12832;52.392;13.066;2022-12-29T00:13:56;25.40;31.60
24730;DHT22;12832;52.392;13.066;2022-12-29T00:16:43;25.40;31.60
24730;DHT22;12832;52.392;13.066;2022-12-29T00:19:10;25.40;31.70
24730;DHT22;12832;52.392;13.066;2022-12-29T00:21:58;25.40;31.60
24730;DHT22;12832;52.392;13.066;2022-12-29T00:24:44;25.40;31.60
24730;DHT22;12832;52.392;13.066;2022-12-29T00:27:27;25.40;31.60
24730;DHT22;12832;52.392;13.066;2022-12-29T00:30:15;25.40;31.70
24730;DHT22;12832;52.392;13.066;2022-12-29T00:33:11;25.40;31.60
24730;DHT22;12832;52.392;13.066;2022-12-29T00:36:03;25.40;31.60
24730;DHT22;12832;52.392;13.066;2022-12-29T00:38:33;25.40;31.70
24730;DHT22;12832;52.392;13.066;2022-12-29T00:41:20;25.40;31.60
24730;DHT22;12832;52.392;13.066;2022-12-29T00:44:06;25.40;31.60
24730;DHT22;12832;52.392;13.066;2022-12-29T00:46:34;25.40;31.70
24730;DHT22;12832;52.392;13.066;2022-12-29T00:49:01;25.40;31.70
24730;DHT22;12832;52.392;13.066;2022-12-29T00:51:46;25.40;31.70
24730;DHT22;12832;52.392;13.066;2022-12-29T00:54:13;25.40;31.70
24730;DHT22;12832;52.392;13.066;2022-12-29T00:56:41;25.40;31.70
24730;DHT22;12832;52.392;13.066;2022-12-29T00:59:16;25.40;31.70
24730;DHT22;12832;52.392;13.066;2022-12-29T01:01:43;25.40;31.60
24730;DHT22;12832;52.392;13.066;2022-12-29T01:04:10;25.40;31.70
24730;DHT22;12832;52.392;13.066;2022-12-29T01:06:39;25.50;31.70
24730;DHT22;12832;52.392;13.066;2022-12-29T01:09:06;25.40;31.70
24730;DHT22;12832;52.392;13.066;2022-12-29T01:11:52;25.50;31.80
24730;DHT22;12832;52.392;13.066;2022-12-29T01:14:19;25.40;31.70
24730;DHT22;12832;52.392;13.066;2022-12-29T01:16:45;25.40;31.70
24730;DHT22;12832;52.392;13.066;2022-12-29T01:19:12;25.40;31.60
24730;DHT22;12832;52.392;13.066;2022-12-29T01:21:38;25.40;31.70
24730;DHT22;12832;52.392;13.066;2022-12-29T01:24:06;25.40;31.60
24730;DHT22;12832;52.392;13.066;2022-12-29T01:26:33;25.40;31.70
24730;DHT22;12832;52.392;13.066;2022-12-29T01:28:59;25.40;31.70
24730;DHT22;12832;52.392;13.066;2022-12-29T01:31:25;25.40;31.60
24730;DHT22;12832;52.392;13.066;2022-12-29T01:33:51;25.40;31.70
24730;DHT22;12832;52.392;13.066;2022-12-29T01:36:19;25.40;31.60
24730;DHT22;12832;52.392;13.066;2022-12-29T01:38:45;25.40;31.70
24730;DHT22;12832;52.392;13.066;2022-12-29T01:41:13;25.50;31.70
24730;DHT22;12832;52.392;13.066;2022-12-29T01:49:23;25.50;31.80
24730;DHT22;12832;52.392;13.066;2022-12-29T01:52:02;25.50;31.70
24730;DHT22;12832;52.392;13.066;2022-12-29T01:54:34;25.50;31.70
24730;DHT22;12832;52.392;13.066;2022-12-29T01:57:06;25.50;31.70
24730;DHT22;12832;52.392;13.066;2022-12-29T01:59:46;25.50;31.70
24730;DHT22;12832;52.392;13.066;2022-12-29T02:02:14;25.50;31.70
24730;DHT22;12832;52.392;13.066;2022-12-29T02:04:41;25.50;31.80
24730;DHT22;12832;52.392;13.066;2022-12-29T02:07:18;25.50;31.80
24730;DHT22;12832;52.392;13.066;2022-12-29T02:09:48;25.50;31.70
24730;DHT22;12832;52.392;13.066;2022-12-29T02:12:15;25.50;31.80
24730;DHT22;12832;52.392;13.066;2022-12-29T02:14:43;25.50;31.80
24730;DHT22;12832;52.392;13.066;2022-12-29T02:23:09;25.50;31.70
24730;DHT22;12832;52.392;13.066;2022-12-29T02:28:52;25.50;31.80
24730;DHT22;12832;52.392;13.066;2022-12-29T02:34:20;25.50;31.70
24730;DHT22;12832;52.392;13.066;2022-12-29T02:37:09;25.50;31.80
24730;DHT22;12832;52.392;13.066;2022-12-29T02:42:33;25.50;31.80
24730;DHT22;12832;52.392;13.066;2022-12-29T02:47:49;25.50;31.80
24730;DHT22;12832;52.392;13.066;2022-12-29T02:50:38;25.50;31.80
24730;DHT22;12832;52.392;13.066;2022-12-29T02:53:17;25.50;31.80
24730;DHT22;12832;52.392;13.066;2022-12-29T02:56:04;25.50;31.70
24730;DHT22;12832;52.392;13.066;2022-12-29T02:58:30;25.50;31.80
24730;DHT22;12832;52.392;13.066;2022-12-29T03:07:07;25.50;31.80
24730;DHT22;12832;52.392;13.066;2022-12-29T03:09:47;25.50;31.80
24730;DHT22;12832;52.392;13.066;2022-12-29T03:12:24;25.50;31.80
24730;DHT22;12832;52.392;13.066;2022-12-29T03:15:21;25.50;31.80
24730;DHT22;12832;52.392;13.066;2022-12-29T03:18:14;25.50;32.40
24730;DHT22;12832;52.392;13.066;2022-12-29T03:20:56;25.50;31.80
24730;DHT22;12832;52.392;13.066;2022-12-29T03:23:24;25.50;31.80
24730;DHT22;12832;52.392;13.066;2022-12-29T03:25:53;25.50;31.80
24730;DHT22;12832;52.392;13.066;2022-12-29T03:28:31;25.50;31.80
24730;DHT22;12832;52.392;13.066;2022-12-29T03:31:02;25.50;31.80
24730;DHT22;12832;52.392;13.066;2022-12-29T03:33:31;25.50;31.80
24730;DHT22;12832;52.392;13.066;2022-12-29T03:36:01;25.50;31.80
24730;DHT22;12832;52.392;13.066;2022-12-29T03:38:39;25.50;31.80
24730;DHT22;12832;52.392;13.066;2022-12-29T03:41:11;25.50;31.80
24730;DHT22;12832;52.392;13.066;2022-12-29T03:43:41;25.50;31.80
24730;DHT22;12832;52.392;13.066;2022-12-29T03:46:07;25.50;31.80
24730;DHT22;12832;52.392;13.066;2022-12-29T03:48:34;25.50;31.80
24730;DHT22;12832;52.392;13.066;2022-12-29T03:51:00;25.50;31.80
24730;DHT22;12832;52.392;13.066;2022-12-29T03:53:26;25.50;31.70
24730;DHT22;12832;52.392;13.066;2022-12-29T03:55:52;25.50;31.80
24730;DHT22;12832;52.392;13.066;2022-12-29T03:58:18;25.50;31.80
24730;DHT22;12832;52.392;13.066;2022-12-29T04:00:44;25.50;31.80
24730;DHT22;12832;52.392;13.066;2022-12-29T04:03:10;25.50;31.70
24730;DHT22;12832;52.392;13.066;2022-12-29T04:05:37;25.50;31.70
24730;DHT22;12832;52.392;13.066;2022-12-29T04:08:03;25.50;31.80
24730;DHT22;12832;52.392;13.066;2022-12-29T04:10:29;25.50;31.70
24730;DHT22;12832;52.392;13.066;2022-12-29T04:12:55;25.50;31.80
24730;DHT22;12832;52.392;13.066;2022-12-29T04:15:21;25.50;31.70
24730;DHT22;12832;52.392;13.066;2022-12-29T04:17:49;25.50;31.80
24730;DHT22;12832;52.392;13.066;2022-12-29T04:20:15;25.50;31.80
24730;DHT22;12832;52.392;13.066;2022-12-29T04:23:01;25.50;31.80
24730;DHT22;12832;52.392;13.066;2022-12-29T04:25:27;25.50;31.80
24730;DHT22;12832;52.392;13.066;2022-12-29T04:27:53;25.50;31.80
24730;DHT22;12832;52.392;13.066;2022-12-29T04:30:20;25.60;31.80
24730;DHT22;12832;52.392;13.066;2022-12-29T04:32:46;25.60;31.80
24730;DHT22;12832;52.392;13.066;2022-12-29T04:35:12;25.60;31.80
24730;DHT22;12832;52.392;13.066;2022-12-29T04:37:38;25.60;31.70
24730;DHT22;12832;52.392;13.066;2022-12-29T04:40:05;25.60;31.80
24730;DHT22;12832;52.392;13.066;2022-12-29T04:42:31;25.60;31.80
24730;DHT22;12832;52.392;13.066;2022-12-29T04:44:57;25.60;31.80
24730;DHT22;12832;52.392;13.066;2022-12-29T04:47:23;25.60;31.80
24730;DHT22;12832;52.392;13.066;2022-12-29T04:49:49;25.50;31.80
24730;DHT22;12832;52.392;13.066;2022-12-29T04:52:16;25.60;31.80
24730;DHT22;12832;52.392;13.066;2022-12-29T04:54:44;25.50;31.80
24730;DHT22;12832;52.392;13.066;2022-12-29T04:57:10;25.50;31.80
24730;DHT22;12832;52.392;13.066;2022-12-29T04:59:36;25.60;31.80
24730;DHT22;12832;52.392;13.066;2022-12-29T05:02:02;25.60;31.80
24730;DHT22;12832;52.392;13.066;2022-12-29T05:04:28;25.60;31.80
24730;DHT22;12832;52.392;13.066;2022-12-29T05:06:54;25.60;31.80
24730;DHT22;12832;52.392;13.066;2022-12-29T05:09:21;25.60;31.80
24730;DHT22;12832;52.392;13.066;2022-12-29T05:11:47;25.60;31.80
24730;DHT22;12832;52.392;13.066;2022-12-29T05:14:13;25.60;31.80
24730;DHT22;12832;52.392;13.066;2022-12-29T05:16:39;25.60;31.80
24730;DHT22;12832;52.392;13.066;2022-12-29T05:19:06;25.60;31.80
24730;DHT22;12832;52.392;13.066;2022-12-29T05:21:33;25.60;31.80
24730;DHT22;12832;52.392;13.066;2022-12-29T05:24:00;25.60;31.80
24730;DHT22;12832;52.392;13.066;2022-12-29T05:26:26;25.60;31.80
24730;DHT22;12832;52.392;13.066;2022-12-29T05:28:52;25.50;31.80
24730;DHT22;12832;52.392;13.066;2022-12-29T05:31:18;25.50;31.80
24730;DHT22;12832;52.392;13.066;2022-12-29T05:33:44;25.50;31.80
24730;DHT22;12832;52.392;13.066;2022-12-29T05:36:12;25.50;31.80
24730;DHT22;12832;52.392;13.066;2022-12-29T05:38:39;25.50;31.80
24730;DHT22;12832;52.392;13.066;2022-12-29T05:41:06;25.50;31.90
24730;DHT22;12832;52.392;13.066;2022-12-29T05:43:32;25.50;31.80
24730;DHT22;12832;52.392;13.066;2022-12-29T05:45:59;25.50;31.80
24730;DHT22;12832;52.392;13.066;2022-12-29T05:48:27;25.50;31.80
24730;DHT22;12832;52.392;13.066;2022-12-29T05:51:02;25.50;31.80
24730;DHT22;12832;52.392;13.066;2022-12-29T05:53:28;25.50;31.90
24730;DHT22;12832;52.392;13.066;2022-12-29T05:55:54;25.50;31.90
24730;DHT22;12832;52.392;13.066;2022-12-29T05:58:21;25.40;31.90
24730;DHT22;12832;52.392;13.066;2022-12-29T06:00:48;25.50;31.90
24730;DHT22;12832;52.392;13.066;2022-12-29T06:03:14;25.50;32.10
24730;DHT22;12832;52.392;13.066;2022-12-29T06:05:40;25.40;32.10
24730;DHT22;12832;52.392;13.066;2022-12-29T06:08:06;25.40;32.20
24730;DHT22;12832;52.392;13.066;2022-12-29T06:10:33;25.40;32.40
24730;DHT22;12832;52.392;13.066;2022-12-29T06:12:59;25.30;32.30
24730;DHT22;12832;52.392;13.066;2022-12-29T06:15:25;25.30;32.40
24730;DHT22;12832;52.392;13.066;2022-12-29T06:17:51;25.30;32.50
24730;DHT22;12832;52.392;13.066;2022-12-29T06:20:17;25.20;32.50
24730;DHT22;12832;52.392;13.066;2022-12-29T06:22:45;25.20;32.50
24730;DHT22;12832;52.392;13.066;2022-12-29T06:25:12;25.20;32.60
24730;DHT22;12832;52.392;13.066;2022-12-29T06:27:38;25.20;32.70
24730;DHT22;12832;52.392;13.066;2022-12-29T06:30:05;25.20;32.70
24730;DHT22;12832;52.392;13.066;2022-12-29T06:32:31;25.10;32.70
24730;DHT22;12832;52.392;13.066;2022-12-29T06:34:58;25.20;32.80
24730;DHT22;12832;52.392;13.066;2022-12-29T06:37:25;25.10;32.70
24730;DHT22;12832;52.392;13.066;2022-12-29T06:39:52;25.10;32.70
24730;DHT22;12832;52.392;13.066;2022-12-29T06:42:18;25.10;33.40
24730;DHT22;12832;52.392;13.066;2022-12-29T06:44:44;25.10;32.80
24730;DHT22;12832;52.392;13.066;2022-12-29T06:47:10;25.10;32.80
24730;DHT22;12832;52.392;13.066;2022-12-29T06:49:36;25.10;32.90
24730;DHT22;12832;52.392;13.066;2022-12-29T06:52:03;25.10;32.90
24730;DHT22;12832;52.392;13.066;2022-12-29T06:54:38;25.10;33.00
24730;DHT22;12832;52.392;13.066;2022-12-29T06:57:04;25.10;33.10
24730;DHT22;12832;52.392;13.066;2022-12-29T06:59:31;25.10;33.10
24730;DHT22;12832;52.392;13.066;2022-12-29T07:01:57;25.10;33.10
24730;DHT22;12832;52.392;13.066;2022-12-29T07:04:25;25.10;33.20
24730;DHT22;12832;52.392;13.066;2022-12-29T07:06:52;25.10;33.20
24730;DHT22;12832;52.392;13.066;2022-12-29T07:09:18;25.00;33.20
24730;DHT22;12832;52.392;13.066;2022-12-29T07:11:44;25.10;33.20
24730;DHT22;12832;52.392;13.066;2022-12-29T07:14:11;25.10;33.20
24730;DHT22;12832;52.392;13.066;2022-12-29T07:16:38;25.00;33.20
24730;DHT22;12832;52.392;13.066;2022-12-29T07:19:04;25.00;33.20
24730;DHT22;12832;52.392;13.066;2022-12-29T07:21:30;25.10;33.30
24730;DHT22;12832;52.392;13.066;2022-12-29T07:23:56;25.10;33.30
24730;DHT22;12832;52.392;13.066;2022-12-29T07:26:22;25.00;33.30
24730;DHT22;12832;52.392;13.066;2022-12-29T07:28:49;25.00;33.30
24730;DHT22;12832;52.392;13.066;2022-12-29T07:31:20;25.10;33.40
24730;DHT22;12832;52.392;13.066;2022-12-29T07:33:47;25.00;33.40
24730;DHT22;12832;52.392;13.066;2022-12-29T07:36:14;25.00;33.40
24730;DHT22;12832;52.392;13.066;2022-12-29T07:38:41;25.00;33.40
24730;DHT22;12832;52.392;13.066;2022-12-29T07:41:08;25.00;33.50
24730;DHT22;12832;52.392;13.066;2022-12-29T07:43:34;25.00;33.50
24730;DHT22;12832;52.392;13.066;2022-12-29T07:46:00;25.00;33.50
24730;DHT22;12832;52.392;13.066;2022-12-29T07:48:27;25.00;33.50
24730;DHT22;12832;52.392;13.066;2022-12-29T07:50:53;25.00;33.50
24730;DHT22;12832;52.392;13.066;2022-12-29T07:53:19;25.00;34.20
24730;DHT22;12832;52.392;13.066;2022-12-29T07:55:46;25.00;33.60
24730;DHT22;12832;52.392;13.066;2022-12-29T07:58:12;25.00;33.60
24730;DHT22;12832;52.392;13.066;2022-12-29T08:00:38;24.90;33.60
24730;DHT22;12832;52.392;13.066;2022-12-29T08:03:05;25.00;33.70
24730;DHT22;12832;52.392;13.066;2022-12-29T08:05:32;25.00;33.70
24730;DHT22;12832;52.392;13.066;2022-12-29T08:07:59;25.00;33.70
24730;DHT22;12832;52.392;13.066;2022-12-29T08:10:25;25.00;33.80
24730;DHT22;12832;52.392;13.066;2022-12-29T08:12:52;25.00;33.70
24730;DHT22;12832;52.392;13.066;2022-12-29T08:15:18;24.90;33.70
24730;DHT22;12832;52.392;13.066;2022-12-29T08:17:44;25.00;33.80
24730;DHT22;12832;52.392;13.066;2022-12-29T08:20:10;25.00;33.90
24730;DHT22;12832;52.392;13.066;2022-12-29T08:22:36;24.90;33.80
24730;DHT22;12832;52.392;13.066;2022-12-29T08:25:03;24.90;33.80
24730;DHT22;12832;52.392;13.066;2022-12-29T08:27:29;25.00;33.90
24730;DHT22;12832;52.392;13.066;2022-12-29T08:29:55;24.90;33.80
24730;DHT22;12832;52.392;13.066;2022-12-29T08:32:21;24.90;33.90
24730;DHT22;12832;52.392;13.066;2022-12-29T08:34:48;24.90;33.90
24730;DHT22;12832;52.392;13.066;2022-12-29T08:37:14;24.90;33.90
24730;DHT22;12832;52.392;13.066;2022-12-29T08:39:40;24.90;34.00
24730;DHT22;12832;52.392;13.066;2022-12-29T08:42:07;24.90;34.00
24730;DHT22;12832;52.392;13.066;2022-12-29T08:44:33;24.90;34.00
24730;DHT22;12832;52.392;13.066;2022-12-29T08:47:00;24.90;34.00
24730;DHT22;12832;52.392;13.066;2022-12-29T08:49:27;24.90;34.00
24730;DHT22;12832;52.392;13.066;2022-12-29T08:51:53;24.90;34.00
24730;DHT22;12832;52.392;13.066;2022-12-29T08:54:19;24.90;34.00
24730;DHT22;12832;52.392;13.066;2022-12-29T08:56:45;24.90;34.00
24730;DHT22;12832;52.392;13.066;2022-12-29T08:59:11;24.90;34.00
24730;DHT22;12832;52.392;13.066;2022-12-29T09:01:38;24.90;34.10
24730;DHT22;12832;52.392;13.066;2022-12-29T09:04:07;24.90;34.10
24730;DHT22;12832;52.392;13.066;2022-12-29T09:06:44;24.90;34.10
24730;DHT22;12832;52.392;13.066;2022-12-29T09:09:11;24.90;34.20
24730;DHT22;12832;52.392;13.066;2022-12-29T09:11:38;24.90;34.10
24730;DHT22;12832;52.392;13.066;2022-12-29T09:14:04;24.90;34.20
24730;DHT22;12832;52.392;13.066;2022-12-29T09:16:31;24.90;34.20
24730;DHT22;12832;52.392;13.066;2022-12-29T09:18:58;24.90;34.30
24730;DHT22;12832;52.392;13.066;2022-12-29T09:21:24;24.90;34.30
24730;DHT22;12832;52.392;13.066;2022-12-29T09:23:50;24.90;34.30
24730;DHT22;12832;52.392;13.066;2022-12-29T09:26:16;24.90;34.30
24730;DHT22;12832;52.392;13.066;2022-12-29T09:28:42;24.90;34.30
24730;DHT22;12832;52.392;13.066;2022-12-29T09:31:10;24.90;34.40
24730;DHT22;12832;52.392;13.066;2022-12-29T09:33:36;24.90;34.40
24730;DHT22;12832;52.392;13.066;2022-12-29T09:36:04;24.90;35.10
24730;DHT22;12832;52.392;13.066;2022-12-29T09:38:30;24.90;34.40
24730;DHT22;12832;52.392;13.066;2022-12-29T09:41:05;24.90;34.40
24730;DHT22;12832;52.392;13.066;2022-12-29T09:46:27;24.90;34.50
24730;DHT22;12832;52.392;13.066;2022-12-29T09:49:29;24.90;34.50
24730;DHT22;12832;52.392;13.066;2022-12-29T09:52:03;24.90;34.50
24730;DHT22;12832;52.392;13.066;2022-12-29T10:00:32;24.90;34.60
24730;DHT22;12832;52.392;13.066;2022-12-29T10:03:15;24.90;34.60
24730;DHT22;12832;52.392;13.066;2022-12-29T10:06:00;24.90;34.60
24730;DHT22;12832;52.392;13.066;2022-12-29T10:11:20;24.90;34.70
24730;DHT22;12832;52.392;13.066;2022-12-29T10:14:00;24.90;34.80
24730;DHT22;12832;52.392;13.066;2022-12-29T10:19:37;24.90;34.80
24730;DHT22;12832;52.392;13.066;2022-12-29T10:22:33;24.90;34.80
24730;DHT22;12832;52.392;13.066;2022-12-29T10:25:06;24.90;34.90
24730;DHT22;12832;52.392;13.066;2022-12-29T10:27:35;24.90;34.80
24730;DHT22;12832;52.392;13.066;2022-12-29T10:30:02;24.90;35.00
24730;DHT22;12832;52.392;13.066;2022-12-29T10:32:39;24.90;34.90
24730;DHT22;12832;52.392;13.066;2022-12-29T10:35:22;24.90;35.00
24730;DHT22;12832;52.392;13.066;2022-12-29T10:38:28;24.90;35.00
24730;DHT22;12832;52.392;13.066;2022-12-29T10:41:08;24.90;35.00
24730;DHT22;12832;52.392;13.066;2022-12-29T10:43:46;24.90;35.00
24730;DHT22;12832;52.392;13.066;2022-12-29T10:46:52;24.90;35.00
24730;DHT22;12832;52.392;13.066;2022-12-29T10:49:16;24.90;35.00
24730;DHT22;12832;52.392;13.066;2022-12-29T10:51:48;24.90;35.00
24730;DHT22;12832;52.392;13.066;2022-12-29T10:54:23;24.90;35.00
24730;DHT22;12832;52.392;13.066;2022-12-29T10:59:45;24.90;35.00
24730;DHT22;12832;52.392;13.066;2022-12-29T11:05:03;24.90;35.00
24730;DHT22;12832;52.392;13.066;2022-12-29T11:07:34;24.90;35.00
24730;DHT22;12832;52.392;13.066;2022-12-29T11:13:03;24.90;35.10
24730;DHT22;12832;52.392;13.066;2022-12-29T11:15:59;24.80;35.00
24730;DHT22;12832;52.392;13.066;2022-12-29T11:18:35;24.90;35.10
24730;DHT22;12832;52.392;13.066;2022-12-29T11:21:06;24.90;35.20
24730;DHT22;12832;52.392;13.066;2022-12-29T11:23:34;24.90;35.20
24730;DHT22;12832;52.392;13.066;2022-12-29T11:26:20;24.90;35.20
24730;DHT22;12832;52.392;13.066;2022-12-29T11:29:03;24.90;35.30
24730;DHT22;12832;52.392;13.066;2022-12-29T11:31:30;24.90;35.30
24730;DHT22;12832;52.392;13.066;2022-12-29T11:33:56;24.90;35.40
24730;DHT22;12832;52.392;13.066;2022-12-29T11:36:24;24.90;35.40
24730;DHT22;12832;52.392;13.066;2022-12-29T11:38:52;24.90;35.40
24730;DHT22;12832;52.392;13.066;2022-12-29T11:41:29;24.90;35.40
24730;DHT22;12832;52.392;13.066;2022-12-29T11:43:59;24.90;35.50
24730;DHT22;12832;52.392;13.066;2022-12-29T11:46:35;24.90;35.50
24730;DHT22;12832;52.392;13.066;2022-12-29T11:49:03;24.90;35.40
24730;DHT22;12832;52.392;13.066;2022-12-29T11:51:45;24.90;35.40
24730;DHT22;12832;52.392;13.066;2022-12-29T11:54:27;24.90;35.40
24730;DHT22;12832;52.392;13.066;2022-12-29T11:56:57;24.90;35.60
24730;DHT22;12832;52.392;13.066;2022-12-29T12:04:50;24.90;35.80
24730;DHT22;12832;52.392;13.066;2022-12-29T12:07:24;24.90;35.90
24730;DHT22;12832;52.392;13.066;2022-12-29T12:10:18;24.90;35.90
24730;DHT22;12832;52.392;13.066;2022-12-29T12:12:48;24.90;36.00
24730;DHT22;12832;52.392;13.066;2022-12-29T12:15:30;24.90;36.00
24730;DHT22;12832;52.392;13.066;2022-12-29T12:18:05;24.90;36.10
24730;DHT22;12832;52.392;13.066;2022-12-29T12:20:56;24.90;35.90
24730;DHT22;12832;52.392;13.066;2022-12-29T12:26:20;24.90;36.00
24730;DHT22;12832;52.392;13.066;2022-12-29T12:28:57;24.90;36.00
24730;DHT22;12832;52.392;13.066;2022-12-29T12:34:32;24.90;36.10
24730;DHT22;12832;52.392;13.066;2022-12-29T12:37:17;24.90;36.00
24730;DHT22;12832;52.392;13.066;2022-12-29T13:01:26;24.90;36.30
24730;DHT22;12832;52.392;13.066;2022-12-29T13:04:23;24.90;37.00
24730;DHT22;12832;52.392;13.066;2022-12-29T13:12:40;24.90;36.30
24730;DHT22;12832;52.392;13.066;2022-12-29T13:15:16;24.90;36.40
24730;DHT22;12832;52.392;13.066;2022-12-29T13:18:26;24.90;36.40
24730;DHT22;12832;52.392;13.066;2022-12-29T13:24:10;24.90;36.60
24730;DHT22;12832;52.392;13.066;2022-12-29T13:26:50;24.90;36.60
24730;DHT22;12832;52.392;13.066;2022-12-29T13:34:48;24.90;36.70
24730;DHT22;12832;52.392;13.066;2022-12-29T13:37:20;24.90;36.80
24730;DHT22;12832;52.392;13.066;2022-12-29T13:39:54;24.90;36.80
24730;DHT22;12832;52.392;13.066;2022-12-29T13:42:22;24.90;36.80
24730;DHT22;12832;52.392;13.066;2022-12-29T13:45:00;24.90;36.80
24730;DHT22;12832;52.392;13.066;2022-12-29T13:47:32;24.90;36.80
24730;DHT22;12832;52.392;13.066;2022-12-29T13:50:01;24.90;36.80
24730;DHT22;12832;52.392;13.066;2022-12-29T13:52:58;24.90;36.90
24730;DHT22;12832;52.392;13.066;2022-12-29T13:55:59;24.90;36.80
24730;DHT22;12832;52.392;13.066;2022-12-29T14:04:26;24.90;36.90
24730;DHT22;12832;52.392;13.066;2022-12-29T14:07:05;24.90;36.90
24730;DHT22;12832;52.392;13.066;2022-12-29T14:12:31;24.90;37.00
24730;DHT22;12832;52.392;13.066;2022-12-29T14:15:19;24.90;37.10
24730;DHT22;12832;52.392;13.066;2022-12-29T14:18:14;24.90;37.00
24730;DHT22;12832;52.392;13.066;2022-12-29T14:21:07;24.90;37.00
24730;DHT22;12832;52.392;13.066;2022-12-29T14:28:37;24.90;37.10
24730;DHT22;12832;52.392;13.066;2022-12-29T14:36:39;24.90;37.10
24730;DHT22;12832;52.392;13.066;2022-12-29T14:39:33;24.90;37.20
24730;DHT22;12832;52.392;13.066;2022-12-29T14:42:10;24.90;37.10
24730;DHT22;12832;52.392;13.066;2022-12-29T14:45:06;24.90;37.20
24730;DHT22;12832;52.392;13.066;2022-12-29T14:47:51;24.90;37.20
24730;DHT22;12832;52.392;13.066;2022-12-29T14:50:40;24.90;37.20
24730;DHT22;12832;52.392;13.066;2022-12-29T14:53:40;24.90;37.20
24730;DHT22;12832;52.392;13.066;2022-12-29T14:56:10;24.90;37.20
24730;DHT22;12832;52.392;13.066;2022-12-29T14:58:50;24.90;37.20
24730;DHT22;12832;52.392;13.066;2022-12-29T15:04:05;24.90;37.20
24730;DHT22;12832;52.392;13.066;2022-12-29T15:06:38;24.90;37.20
24730;DHT22;12832;52.392;13.066;2022-12-29T15:09:30;24.90;37.20
24730;DHT22;12832;52.392;13.066;2022-12-29T15:12:01;24.90;37.20
24730;DHT22;12832;52.392;13.066;2022-12-29T15:14:36;24.90;37.20
24730;DHT22;12832;52.392;13.066;2022-12-29T15:17:29;24.90;37.20
24730;DHT22;12832;52.392;13.066;2022-12-29T15:19:57;24.90;37.20
24730;DHT22;12832;52.392;13.066;2022-12-29T15:22:24;24.90;37.20
24730;DHT22;12832;52.392;13.066;2022-12-29T15:24:52;24.90;37.40
24730;DHT22;12832;52.392;13.066;2022-12-29T15:27:22;24.90;37.20
24730;DHT22;12832;52.392;13.066;2022-12-29T15:30:00;24.90;37.20
24730;DHT22;12832;52.392;13.066;2022-12-29T15:32:47;24.90;37.20
24730;DHT22;12832;52.392;13.066;2022-12-29T15:35:33;24.90;37.20
24730;DHT22;12832;52.392;13.066;2022-12-29T15:38:01;24.90;37.90
24730;DHT22;12832;52.392;13.066;2022-12-29T15:40:43;24.90;37.20
24730;DHT22;12832;52.392;13.066;2022-12-29T15:46:01;24.90;37.20
24730;DHT22;12832;52.392;13.066;2022-12-29T15:48:28;24.90;37.20
24730;DHT22;12832;52.392;13.066;2022-12-29T15:50:54;24.90;37.20
24730;DHT22;12832;52.392;13.066;2022-12-29T15:53:29;24.90;37.20
24730;DHT22;12832;52.392;13.066;2022-12-29T15:56:16;24.90;37.20
24730;DHT22;12832;52.392;13.066;2022-12-29T15:58:47;24.90;37.20
24730;DHT22;12832;52.392;13.066;2022-12-29T16:01:28;24.90;37.10
24730;DHT22;12832;52.392;13.066;2022-12-29T16:04:00;24.90;37.10
24730;DHT22;12832;52.392;13.066;2022-12-29T16:09:16;24.80;36.80
24730;DHT22;12832;52.392;13.066;2022-12-29T16:11:55;24.90;36.70
24730;DHT22;12832;52.392;13.066;2022-12-29T16:17:00;24.90;36.50
24730;DHT22;12832;52.392;13.066;2022-12-29T16:19:57;24.80;36.30
24730;DHT22;12832;52.392;13.066;2022-12-29T16:22:47;24.80;36.20
24730;DHT22;12832;52.392;13.066;2022-12-29T16:25:31;24.80;36.20
24730;DHT22;12832;52.392;13.066;2022-12-29T16:28:01;24.80;36.10
24730;DHT22;12832;52.392;13.066;2022-12-29T16:30:30;24.80;36.10
24730;DHT22;12832;52.392;13.066;2022-12-29T16:33:05;24.80;36.00
24730;DHT22;12832;52.392;13.066;2022-12-29T16:38:22;24.80;35.90
24730;DHT22;12832;52.392;13.066;2022-12-29T16:40:58;24.80;35.80
24730;DHT22;12832;52.392;13.066;2022-12-29T16:43:32;24.80;35.70
24730;DHT22;12832;52.392;13.066;2022-12-29T16:48:28;24.70;35.50
24730;DHT22;12832;52.392;13.066;2022-12-29T16:51:17;24.70;35.60
24730;DHT22;12832;52.392;13.066;2022-12-29T16:53:52;24.70;35.50
24730;DHT22;12832;52.392;13.066;2022-12-29T16:56:22;24.70;35.50
24730;DHT22;12832;52.392;13.066;2022-12-29T16:58:52;24.70;35.40
24730;DHT22;12832;52.392;13.066;2022-12-29T17:01:20;24.70;35.40
24730;DHT22;12832;52.392;13.066;2022-12-29T17:03:53;24.70;35.40
24730;DHT22;12832;52.392;13.066;2022-12-29T17:06:21;24.70;35.30
24730;DHT22;12832;52.392;13.066;2022-12-29T17:08:49;24.70;35.20
24730;DHT22;12832;52.392;13.066;2022-12-29T17:11:35;24.70;35.20
24730;DHT22;12832;52.392;13.066;2022-12-29T17:14:42;24.70;35.90
24730;DHT22;12832;52.392;13.066;2022-12-29T17:17:44;24.70;35.10
24730;DHT22;12832;52.392;13.066;2022-12-29T17:20:25;24.70;35.10
24730;DHT22;12832;52.392;13.066;2022-12-29T17:22:52;24.70;35.10
24730;DHT22;12832;52.392;13.066;2022-12-29T17:25:21;24.70;35.10
24730;DHT22;12832;52.392;13.066;2022-12-29T17:28:00;24.70;35.10
24730;DHT22;12832;52.392;13.066;2022-12-29T17:30:29;24.70;35.10
24730;DHT22;12832;52.392;13.066;2022-12-29T17:33:04;24.70;35.00
24730;DHT22;12832;52.392;13.066;2022-12-29T17:35:31;24.70;35.00
24730;DHT22;12832;52.392;13.066;2022-12-29T17:37:57;24.70;35.00
24730;DHT22;12832;52.392;13.066;2022-12-29T17:40:27;24.70;35.00
24730;DHT22;12832;52.392;13.066;2022-12-29T17:42:56;24.70;35.00
24730;DHT22;12832;52.392;13.066;2022-12-29T17:45:30;24.60;35.00
24730;DHT22;12832;52.392;13.066;2022-12-29T17:47:58;24.70;35.00
24730;DHT22;12832;52.392;13.066;2022-12-29T17:50:29;24.60;35.00
24730;DHT22;12832;52.392;13.066;2022-12-29T17:53:02;24.60;34.90
24730;DHT22;12832;52.392;13.066;2022-12-29T17:55:29;24.70;35.00
24730;DHT22;12832;52.392;13.066;2022-12-29T17:58:26;24.70;34.90
24730;DHT22;12832;52.392;13.066;2022-12-29T18:00:58;24.70;34.90
24730;DHT22;12832;52.392;13.066;2022-12-29T18:03:30;24.70;34.80